Feltham, United Kingdom

3:58 PM GMT on February 14, 2016 (GMT +0000)
Hampton Hill | | Change Station
CLOSE
Current Station
Personal Weather Station
Location: Hampton, MIDDLESEX
Elevation: 66 ft
Nearby Weather Stations

Elev 66 ft 51.43 °N, 0.36 °W | Updated 14 seconds ago

Partly Cloudy
Partly Cloudy
41.1 °F
Feels Like 38 °F
N
4.6
Wind Variable Wind from North
Gusts 4.6 mph

Today
High -- | Low -- °F
--% Chance of Precip.
Yesterday
High -- | Low -- °F
Precip. -- in
Pressure 29.56 in
Visibility 6.2 miles
Clouds Few 3600 ft
Windchill 38 °F
Dew Point 31 °F
Humidity 68%
Rainfall 0.06 in
Snow Depth Not available.
7:18 AM 5:13 PM
Waxing Crescent, 43% visible
METAR EGLL 141550Z AUTO 01011KT 350V050 9999 FEW036 05/M03 Q1001 NOSIG
Pressure 29.56 in
Visibility 6.2 miles
Clouds Few 3600 ft
Windchill 38 °F
Dew Point 31 °F
Humidity 68%
Rainfall 0.06 in
Snow Depth Not available.
7:18 AM 5:13 PM
Waxing Crescent, 43% visible
METAR EGLL 141550Z AUTO 01011KT 350V050 9999 FEW036 05/M03 Q1001 NOSIG

10-Day Weather Forecast

Almanac

Astronomy

Feb. 14, 2016 Rise Set
Actual Time
Civil Twilight
Nautical Twilight
Astronomical Twilight
Moon
Length of Visible Light
Length of Day
Tomorrow will be .
, % of the Moon is Illuminated

Today's Extremes

Country Highs Country Lows

Community

WunderPhotos

Upload Photos

1,892,802 photos uploaded!

WunderBlog® & News

Nearby

Air Quality

  Air Quality AQ Index Pollutant
Not available.

Snow Depth

Station Depth Elevation

Earthquake Activity

City Distance Mag. Time & Date
Minimum magnitude displayed is 2.5.

Coastal Water Temperatures

Place Temperature

Stations

Nearby Weather Stations

Station Location Temp. Windchill Dew Point Humidity Wind Precip. Elev Updated Type